Portada
METAR-TAF:

METAR-TAF

Aeroports :

Wakkanai, Japó

latitud: 45-24N, longitud: 141-48E, altitud: 8 m

Observació

L'informe es va fer fa 7 hores i 34 minuts, a les 09:26 UTC
Vent 9 kt del Nord-Oest
Temperatura -1°C
Humitat 74%
Pressió 1007 hPa
Visibilitat: 4900 m
Escasses núvols a una alçada de 500 ft
Núvols disperses a una alçada de 1500 ft
Cel ennuvolat a una alçada de 2000 ft
xàfecs de neu

METAR: RJCW 200926Z 31009KT 4900 R08/1300VP2000D -SHSN FEW005 SCT015 BKN020 M01/M05 Q1007 RMK 1ST005 3ST015 6CU020 A2976

Hora: 02:00 (17:00 UTC)


TAF: manca

Observacions i pronòstics meteorològics de més de 4000 aeroports (METAR i TAF).

Les estacions disponibles són els punts grocs i vermells al mapa.

Posi el ratolí al punt desitjat per veure el nom de l'estació.

Feu clic per veure les observacions i els pronòstics meteorològics.

Per canviar el mapa: feu clic els botons verds amb una creu de color negre per apropar; al botó verd amb un guió per allunyar la imatge; o en les fletxes verdes per a mapes adjacents.


METAR-TAF: